createdAt,value
2022-10-30T00:02:03.563Z,94.08
2022-10-30T00:04:33.648Z,94.32
2022-10-30T00:07:04.362Z,93.98
2022-10-30T00:09:33.632Z,93.75
2022-10-30T00:12:03.365Z,93.59
2022-10-30T00:14:33.799Z,94.18
2022-10-30T00:17:06.089Z,94.43
2022-10-30T00:19:34.882Z,93.16
2022-10-30T00:24:36.090Z,90.75
2022-10-30T00:27:06.322Z,91.37
2022-10-30T00:29:35.099Z,91.62
2022-10-30T00:32:04.234Z,92.59
2022-10-30T00:34:33.578Z,93.04
2022-10-30T00:37:03.141Z,94.07
2022-10-30T00:39:34.181Z,93.35
2022-10-30T00:42:03.802Z,92.82
2022-10-30T00:44:47.001Z,94.78
2022-10-30T00:47:21.428Z,95.13
2022-10-30T00:49:58.831Z,93.97
2022-10-30T00:52:33.450Z,93.94
2022-10-30T00:55:07.440Z,94.64
2022-10-30T00:57:38.873Z,94.22
2022-10-30T01:00:10.009Z,94.81
2022-10-30T01:02:40.628Z,95.12
2022-10-30T01:05:12.751Z,94.99
2022-10-30T01:07:41.874Z,94.61
2022-10-30T01:10:14.507Z,94.69
2022-10-30T01:12:45.736Z,95.63
2022-10-30T01:15:16.125Z,95.14
2022-10-30T01:18:05.120Z,95.77
2022-10-30T01:21:24.977Z,96.71
2022-10-30T01:24:07.362Z,96.38
2022-10-30T01:26:46.669Z,96.20
2022-10-30T01:29:29.011Z,96.51
2022-10-30T01:32:20.684Z,96.78
2022-10-30T01:34:59.464Z,96.98
2022-10-30T01:37:35.779Z,95.39
2022-10-30T01:40:12.040Z,94.76
2022-10-30T01:42:48.307Z,93.93
2022-10-30T01:45:32.024Z,95.62
2022-10-30T01:48:15.762Z,95.39
2022-10-30T01:50:58.022Z,96.35
2022-10-30T01:53:38.638Z,97.75
2022-10-30T01:56:22.484Z,98.09
2022-10-30T01:59:03.211Z,99.37
2022-10-30T02:01:35.871Z,99.04
2022-10-30T02:04:05.875Z,97.42
2022-10-30T02:06:37.706Z,97.89
2022-10-30T02:09:07.336Z,99.17
2022-10-30T02:11:39.060Z,97.50
2022-10-30T02:14:10.890Z,97.54
2022-10-30T02:16:46.717Z,98.04
2022-10-30T02:19:15.910Z,96.86
2022-10-30T02:21:46.846Z,95.89
2022-10-30T02:24:18.387Z,95.50
2022-10-30T02:26:47.741Z,94.98
2022-10-30T02:29:18.565Z,95.79
2022-10-30T02:31:49.999Z,96.49
2022-10-30T02:34:18.683Z,95.89
2022-10-30T02:36:49.298Z,96.85
2022-10-30T02:39:21.324Z,98.13
2022-10-30T02:41:49.981Z,99.49
2022-10-30T02:44:18.719Z,98.82
2022-10-30T02:46:49.564Z,99.45
2022-10-30T02:49:18.402Z,99.69
2022-10-30T02:51:48.779Z,97.94
2022-10-30T02:54:20.277Z,99.22
2022-10-30T02:56:50.571Z,97.80
2022-10-30T02:59:20.761Z,95.98
2022-10-30T03:01:51.569Z,96.26
2022-10-30T03:04:21.541Z,97.90
2022-10-30T03:06:51.760Z,99.38
2022-10-30T03:09:21.093Z,97.68
2022-10-30T03:11:50.175Z,96.23
2022-10-30T03:14:18.859Z,96.39
2022-10-30T03:16:49.206Z,94.75
2022-10-30T03:19:18.551Z,94.95
2022-10-30T03:21:48.065Z,94.67
2022-10-30T03:24:18.402Z,94.66
2022-10-30T03:26:48.204Z,97.63
2022-10-30T03:29:17.222Z,98.00
2022-10-30T03:31:46.318Z,99.24
2022-10-30T03:34:20.434Z,98.38
2022-10-30T03:36:49.401Z,99.13
2022-10-30T03:39:19.577Z,99.06
2022-10-30T03:41:48.456Z,98.10
2022-10-30T03:44:17.447Z,99.56
2022-10-30T03:46:46.865Z,100.00
2022-10-30T03:49:44.007Z,100.00
2022-10-30T03:52:16.299Z,100.00
2022-10-30T03:54:48.126Z,99.55
2022-10-30T03:57:19.006Z,100.00
2022-10-30T04:00:08.552Z,97.43
2022-10-30T04:02:47.108Z,96.83
2022-10-30T04:05:18.805Z,96.27
2022-10-30T04:07:49.197Z,97.45
2022-10-30T04:10:22.925Z,99.16
2022-10-30T04:12:55.495Z,100.00
2022-10-30T04:15:26.603Z,100.00
2022-10-30T04:17:55.721Z,100.00
2022-10-30T04:20:26.775Z,99.88
2022-10-30T04:23:01.305Z,98.01
2022-10-30T04:25:32.839Z,96.86
2022-10-30T04:28:02.681Z,96.51
2022-10-30T04:30:35.375Z,96.15
2022-10-30T04:33:06.060Z,96.36
2022-10-30T04:35:38.556Z,96.26
2022-10-30T04:38:14.702Z,97.10
2022-10-30T04:40:50.949Z,98.75
2022-10-30T04:43:20.607Z,98.29
2022-10-30T04:45:53.826Z,97.90
2022-10-30T04:48:22.879Z,98.12
2022-10-30T04:50:55.776Z,98.35
2022-10-30T04:53:27.077Z,97.74
2022-10-30T04:56:08.064Z,99.99
2022-10-30T04:58:37.190Z,100.00
2022-10-30T05:01:08.518Z,100.00
2022-10-30T05:03:38.670Z,100.00
2022-10-30T05:06:24.441Z,99.66
2022-10-30T05:08:53.459Z,99.71
2022-10-30T05:11:45.667Z,99.28
2022-10-30T05:14:14.591Z,100.00
2022-10-30T05:16:44.283Z,100.00
2022-10-30T05:19:13.609Z,100.00
2022-10-30T05:21:48.342Z,100.00
2022-10-30T05:24:17.400Z,100.00
2022-10-30T05:26:50.463Z,100.00
2022-10-30T05:29:19.268Z,100.00
2022-10-30T05:31:48.088Z,100.00
2022-10-30T05:34:19.437Z,100.00
2022-10-30T05:36:51.210Z,100.00
2022-10-30T05:39:22.353Z,99.17
2022-10-30T05:41:55.299Z,99.95
2022-10-30T05:44:47.337Z,99.80
2022-10-30T05:47:16.288Z,99.39
2022-10-30T05:49:48.857Z,100.00
2022-10-30T05:52:23.594Z,100.00
2022-10-30T05:54:53.249Z,100.00
2022-10-30T05:57:41.898Z,100.00
2022-10-30T06:00:12.009Z,100.00
2022-10-30T06:02:47.367Z,100.00
2022-10-30T06:05:18.140Z,100.00
2022-10-30T06:07:47.518Z,100.00
2022-10-30T06:10:16.965Z,100.00
2022-10-30T06:13:03.038Z,100.00
2022-10-30T06:16:03.907Z,100.00
2022-10-30T06:18:52.170Z,100.00
2022-10-30T06:21:21.233Z,100.00
2022-10-30T06:24:09.513Z,100.00
2022-10-30T06:26:51.109Z,100.00
2022-10-30T06:29:21.402Z,100.00
2022-10-30T06:31:50.565Z,98.04
2022-10-30T06:34:19.496Z,97.80
2022-10-30T06:36:48.480Z,98.54
2022-10-30T06:39:17.875Z,100.00
2022-10-30T06:42:05.137Z,100.00
2022-10-30T06:45:16.179Z,100.00
2022-10-30T06:47:45.527Z,100.00
2022-10-30T06:50:17.509Z,100.00
2022-10-30T06:52:49.502Z,99.93
2022-10-30T06:55:19.147Z,99.86
2022-10-30T06:57:59.485Z,100.00
2022-10-30T07:00:53.476Z,100.00
2022-10-30T07:03:36.427Z,100.00
2022-10-30T07:06:05.535Z,100.00
2022-10-30T07:08:35.132Z,100.00
2022-10-30T07:11:03.926Z,100.00
2022-10-30T07:13:44.687Z,100.00
2022-10-30T07:16:37.840Z,100.00
2022-10-30T07:19:07.265Z,100.00
2022-10-30T07:21:36.978Z,100.00
2022-10-30T07:24:08.769Z,100.00
2022-10-30T07:26:47.228Z,100.00
2022-10-30T07:29:33.501Z,100.00
2022-10-30T07:32:21.885Z,100.00
2022-10-30T07:34:52.151Z,100.00
2022-10-30T07:37:31.515Z,100.00
2022-10-30T07:40:12.422Z,100.00
2022-10-30T07:43:05.595Z,100.00
2022-10-30T07:45:46.441Z,100.00
2022-10-30T07:48:35.473Z,100.00
2022-10-30T07:51:25.363Z,100.00
2022-10-30T07:53:57.545Z,100.00
2022-10-30T07:56:29.748Z,100.00
2022-10-30T07:58:58.839Z,100.00
2022-10-30T08:01:30.656Z,100.00
2022-10-30T08:04:11.310Z,100.00
2022-10-30T08:06:40.574Z,100.00
2022-10-30T08:09:10.320Z,100.00
2022-10-30T08:11:39.324Z,100.00
2022-10-30T08:14:13.101Z,100.00
2022-10-30T08:16:42.201Z,100.00
2022-10-30T08:19:13.178Z,100.00
2022-10-30T08:21:43.133Z,100.00
2022-10-30T08:24:19.537Z,100.00
2022-10-30T08:26:52.804Z,100.00
2022-10-30T08:29:23.746Z,100.00
2022-10-30T08:31:53.655Z,100.00
2022-10-30T08:34:44.226Z,100.00
2022-10-30T08:37:18.100Z,100.00
2022-10-30T08:39:47.413Z,100.00
2022-10-30T08:42:40.113Z,100.00
2022-10-30T08:45:12.633Z,100.00
2022-10-30T08:48:00.514Z,100.00
2022-10-30T08:50:33.221Z,100.00
2022-10-30T08:53:07.511Z,100.00
2022-10-30T08:55:37.005Z,100.00
2022-10-30T08:58:09.512Z,100.00
2022-10-30T09:00:39.265Z,100.00
2022-10-30T09:03:14.349Z,100.00
2022-10-30T09:06:03.908Z,100.00
2022-10-30T09:08:32.665Z,100.00
2022-10-30T09:11:01.611Z,100.00
2022-10-30T09:13:31.057Z,100.00
2022-10-30T09:16:03.991Z,100.00
2022-10-30T09:18:35.417Z,100.00
2022-10-30T09:21:05.961Z,100.00
2022-10-30T09:23:44.893Z,100.00
2022-10-30T09:26:32.450Z,100.00
2022-10-30T09:29:11.630Z,100.00
2022-10-30T09:32:01.194Z,100.00
2022-10-30T09:34:32.879Z,100.00
2022-10-30T09:37:41.625Z,100.00
2022-10-30T09:40:23.371Z,100.00
2022-10-30T09:42:53.358Z,100.00
2022-10-30T09:45:58.498Z,100.00
2022-10-30T09:48:47.767Z,100.00
2022-10-30T09:51:36.779Z,99.93
2022-10-30T09:54:17.142Z,100.00
2022-10-30T09:56:59.538Z,99.52
2022-10-30T09:59:42.967Z,98.68
2022-10-30T10:02:28.712Z,97.75
2022-10-30T10:05:02.260Z,97.12
2022-10-30T10:07:51.406Z,96.88
2022-10-30T10:10:43.514Z,95.77
2022-10-30T10:13:30.540Z,95.11
2022-10-30T10:16:06.207Z,93.87
2022-10-30T10:18:47.818Z,92.64
2022-10-30T10:21:25.964Z,91.28
2022-10-30T10:23:57.008Z,90.77
2022-10-30T10:26:37.422Z,89.78
2022-10-30T10:29:33.604Z,88.05
2022-10-30T10:32:34.525Z,86.41
2022-10-30T10:35:21.997Z,86.48
2022-10-30T10:37:59.268Z,85.97
2022-10-30T10:40:43.730Z,85.86
2022-10-30T10:43:25.436Z,84.50
2022-10-30T10:46:06.829Z,84.28
2022-10-30T10:48:52.229Z,84.07
2022-10-30T10:51:23.936Z,83.94
2022-10-30T10:53:57.092Z,83.39
2022-10-30T10:56:30.514Z,83.20
2022-10-30T10:59:05.426Z,82.39
2022-10-30T11:01:39.692Z,81.57
2022-10-30T11:04:15.811Z,81.38
2022-10-30T11:06:50.407Z,82.01
2022-10-30T11:09:23.584Z,82.64
2022-10-30T11:11:54.371Z,82.83
2022-10-30T11:14:26.337Z,81.01
2022-10-30T11:17:14.147Z,81.17
2022-10-30T11:19:47.800Z,81.45
2022-10-30T11:22:27.364Z,81.19
2022-10-30T11:24:56.120Z,81.75
2022-10-30T11:27:28.696Z,81.42
2022-10-30T11:30:02.477Z,82.19
2022-10-30T11:32:33.148Z,82.18
2022-10-30T11:35:04.620Z,82.35
2022-10-30T11:37:35.775Z,82.64
2022-10-30T11:40:17.617Z,82.56
2022-10-30T11:42:55.959Z,82.68
2022-10-30T11:45:29.703Z,82.33
2022-10-30T11:48:02.730Z,82.73
2022-10-30T11:50:34.209Z,83.13
2022-10-30T11:53:12.188Z,82.99
2022-10-30T11:55:46.386Z,83.03
2022-10-30T11:58:27.315Z,81.68
2022-10-30T12:01:03.811Z,81.76
2022-10-30T12:03:39.712Z,81.28
2022-10-30T12:06:11.608Z,81.41
2022-10-30T12:08:40.892Z,81.50
2022-10-30T12:11:10.100Z,81.20
2022-10-30T12:13:41.402Z,80.95
2022-10-30T12:16:17.620Z,80.92
2022-10-30T12:18:58.295Z,80.89
2022-10-30T12:21:29.381Z,80.33
2022-10-30T12:24:06.966Z,80.27
2022-10-30T12:26:38.560Z,80.66
2022-10-30T12:29:14.828Z,80.61
2022-10-30T12:31:51.287Z,80.93
2022-10-30T12:34:35.323Z,80.15
2022-10-30T12:37:14.784Z,80.32
2022-10-30T12:39:54.677Z,80.12
2022-10-30T12:42:27.193Z,81.06
2022-10-30T12:45:10.285Z,81.85
2022-10-30T12:47:49.715Z,82.43
2022-10-30T12:50:23.903Z,82.21
2022-10-30T12:53:00.936Z,82.26
2022-10-30T12:55:35.676Z,82.68
2022-10-30T12:58:14.744Z,82.57
2022-10-30T13:00:56.162Z,82.27
2022-10-30T13:03:32.956Z,82.87
2022-10-30T13:06:06.916Z,82.83
2022-10-30T13:08:39.836Z,82.01
2022-10-30T13:11:18.123Z,82.77
2022-10-30T13:13:50.235Z,82.61
2022-10-30T13:16:24.162Z,83.01
2022-10-30T13:18:58.760Z,83.00
2022-10-30T13:21:33.945Z,82.80
2022-10-30T13:24:06.551Z,83.70
2022-10-30T13:26:43.967Z,83.98
2022-10-30T13:29:21.259Z,84.75
2022-10-30T13:32:00.505Z,84.94
2022-10-30T13:34:45.012Z,85.64
2022-10-30T13:37:22.899Z,85.18
2022-10-30T13:40:03.273Z,85.20
2022-10-30T13:42:44.954Z,83.18
2022-10-30T13:45:43.986Z,84.01
2022-10-30T13:48:25.650Z,85.53
2022-10-30T13:51:24.598Z,85.93
2022-10-30T13:54:07.130Z,86.47
2022-10-30T13:56:37.371Z,85.42
2022-10-30T13:59:18.061Z,84.88
2022-10-30T14:01:57.506Z,85.62
2022-10-30T14:04:38.582Z,85.49
2022-10-30T14:07:27.673Z,84.70
2022-10-30T14:10:03.945Z,85.31
2022-10-30T14:12:52.747Z,85.58
2022-10-30T14:15:33.470Z,86.29
2022-10-30T14:18:42.002Z,86.23
2022-10-30T14:21:39.886Z,86.17
2022-10-30T14:24:19.498Z,86.30
2022-10-30T14:26:54.616Z,85.21
2022-10-30T14:29:43.696Z,83.03
2022-10-30T14:32:42.598Z,82.65
2022-10-30T14:35:33.224Z,80.88
2022-10-30T14:38:28.205Z,81.15
2022-10-30T14:41:39.326Z,82.21
2022-10-30T14:44:46.882Z,82.40
2022-10-30T14:47:44.524Z,80.62
2022-10-30T14:50:21.314Z,81.30
2022-10-30T14:53:03.232Z,82.38
2022-10-30T14:55:36.128Z,81.52
2022-10-30T14:58:22.094Z,82.21
2022-10-30T15:00:51.453Z,82.53
2022-10-30T15:03:48.947Z,83.22
2022-10-30T15:06:25.686Z,83.00
2022-10-30T15:09:09.402Z,83.45
2022-10-30T15:12:07.040Z,83.06
2022-10-30T15:14:53.829Z,83.36
2022-10-30T15:17:30.507Z,84.38
2022-10-30T15:20:02.796Z,83.23
2022-10-30T15:22:34.148Z,83.40
2022-10-30T15:25:03.822Z,82.84
2022-10-30T15:27:36.468Z,83.64
2022-10-30T15:30:08.200Z,83.02
2022-10-30T15:32:41.994Z,82.95
2022-10-30T15:35:17.300Z,83.74
2022-10-30T15:38:03.417Z,82.91
2022-10-30T15:40:36.368Z,82.64
2022-10-30T15:43:08.903Z,84.92
2022-10-30T15:45:42.802Z,86.01
2022-10-30T15:48:25.761Z,85.62
2022-10-30T15:51:02.240Z,85.18
2022-10-30T15:53:37.786Z,86.75
2022-10-30T15:56:13.602Z,86.95
2022-10-30T15:58:51.621Z,86.98
2022-10-30T16:01:32.555Z,86.96
2022-10-30T16:04:03.942Z,87.32
2022-10-30T16:06:33.411Z,88.69
2022-10-30T16:09:05.168Z,89.58
2022-10-30T16:11:34.732Z,90.39
2022-10-30T16:14:08.999Z,89.24
2022-10-30T16:16:39.606Z,89.86
2022-10-30T16:19:08.340Z,90.33
2022-10-30T16:21:39.841Z,90.97
2022-10-30T16:24:11.343Z,90.83
2022-10-30T16:26:40.754Z,90.99
2022-10-30T16:29:27.346Z,90.07
2022-10-30T16:31:57.794Z,90.24
2022-10-30T16:34:32.057Z,90.80
2022-10-30T16:37:02.764Z,90.80
2022-10-30T16:39:33.235Z,91.32
2022-10-30T16:42:05.131Z,91.64
2022-10-30T16:44:35.528Z,91.46
2022-10-30T16:47:11.596Z,91.44
2022-10-30T16:49:48.560Z,91.29
2022-10-30T16:52:24.656Z,90.95
2022-10-30T16:55:02.676Z,90.80
2022-10-30T16:57:34.439Z,90.61
2022-10-30T17:00:06.272Z,89.29
2022-10-30T17:02:46.042Z,88.10
2022-10-30T17:05:22.573Z,88.20
2022-10-30T17:07:56.343Z,88.96
2022-10-30T17:10:34.127Z,89.67
2022-10-30T17:13:35.204Z,89.68
2022-10-30T17:16:24.980Z,90.59
2022-10-30T17:18:57.663Z,90.55
2022-10-30T17:21:30.351Z,90.08
2022-10-30T17:24:02.375Z,91.08
2022-10-30T17:26:38.867Z,91.54
2022-10-30T17:29:07.516Z,92.08
2022-10-30T17:31:44.213Z,92.07
2022-10-30T17:34:17.625Z,92.27
2022-10-30T17:36:46.550Z,92.55
2022-10-30T17:39:15.475Z,92.45
2022-10-30T17:41:44.276Z,92.52
2022-10-30T17:44:19.952Z,91.52
2022-10-30T17:46:52.736Z,91.56
2022-10-30T17:49:28.051Z,91.99
2022-10-30T17:51:57.204Z,92.28
2022-10-30T17:54:26.171Z,92.49
2022-10-30T17:56:59.356Z,92.55
2022-10-30T17:59:29.785Z,91.67
2022-10-30T18:01:58.561Z,91.55
2022-10-30T18:04:29.089Z,92.33
2022-10-30T18:06:57.843Z,92.55
2022-10-30T18:09:26.822Z,92.67
2022-10-30T18:11:55.611Z,92.83
2022-10-30T18:14:24.518Z,92.85
2022-10-30T18:16:55.536Z,92.72
2022-10-30T18:19:27.744Z,92.99
2022-10-30T18:21:58.091Z,93.16
2022-10-30T18:24:26.939Z,93.42
2022-10-30T18:26:58.717Z,92.93
2022-10-30T18:29:29.524Z,92.46
2022-10-30T18:32:05.425Z,91.58
2022-10-30T18:34:40.094Z,89.56
2022-10-30T18:37:11.204Z,89.55
2022-10-30T18:39:39.894Z,89.45
2022-10-30T18:42:10.177Z,89.15
2022-10-30T18:44:38.863Z,89.96
2022-10-30T18:47:11.758Z,89.41
2022-10-30T18:49:40.571Z,89.69
2022-10-30T18:52:11.759Z,89.18
2022-10-30T18:54:40.719Z,89.42
2022-10-30T18:57:09.389Z,89.37
2022-10-30T18:59:38.244Z,89.11
2022-10-30T19:02:21.715Z,89.19
2022-10-30T19:04:55.018Z,90.27
2022-10-30T19:07:25.819Z,90.62
2022-10-30T19:09:55.878Z,91.02
2022-10-30T19:12:24.670Z,91.51
2022-10-30T19:14:53.611Z,91.99
2022-10-30T19:17:22.727Z,91.93
2022-10-30T19:19:51.415Z,91.96
2022-10-30T19:22:22.628Z,92.46
2022-10-30T19:24:55.078Z,92.38
2022-10-30T19:27:27.102Z,92.36
2022-10-30T19:29:55.788Z,91.53
2022-10-30T19:32:28.093Z,91.74
2022-10-30T19:34:57.057Z,91.90
2022-10-30T19:37:25.958Z,91.83
2022-10-30T19:39:56.704Z,91.52
2022-10-30T19:42:25.582Z,91.35
2022-10-30T19:44:58.939Z,90.50
2022-10-30T19:47:28.050Z,90.00
2022-10-30T19:49:56.736Z,89.52
2022-10-30T19:52:29.247Z,89.84
2022-10-30T19:54:59.567Z,90.10
2022-10-30T19:57:30.561Z,89.99
2022-10-30T19:59:59.589Z,89.20
2022-10-30T20:02:30.796Z,89.38
2022-10-30T20:05:03.321Z,89.52
2022-10-30T20:07:32.175Z,88.72
2022-10-30T20:10:02.293Z,88.25
2022-10-30T20:12:31.332Z,87.64
2022-10-30T20:15:00.131Z,86.03
2022-10-30T20:17:30.478Z,85.97
2022-10-30T20:20:01.493Z,86.34
2022-10-30T20:22:30.614Z,86.12
2022-10-30T20:25:00.399Z,85.30
2022-10-30T20:27:30.927Z,85.30
2022-10-30T20:30:02.297Z,85.82
2022-10-30T20:32:33.648Z,86.37
2022-10-30T20:35:06.297Z,86.84
2022-10-30T20:37:39.144Z,87.36
2022-10-30T20:40:14.022Z,87.74
2022-10-30T20:42:50.088Z,88.27
2022-10-30T20:45:24.510Z,87.56
2022-10-30T20:47:56.354Z,87.21
2022-10-30T20:50:28.342Z,86.92
2022-10-30T20:52:57.761Z,85.77
2022-10-30T20:55:26.510Z,86.61
2022-10-30T20:57:58.139Z,86.96
2022-10-30T21:00:27.046Z,87.41
2022-10-30T21:02:59.182Z,86.70
2022-10-30T21:05:43.152Z,86.26
2022-10-30T21:08:12.864Z,86.41
2022-10-30T21:10:42.037Z,86.35
2022-10-30T21:13:14.308Z,87.19
2022-10-30T21:15:44.563Z,86.56
2022-10-30T21:18:16.614Z,86.26
2022-10-30T21:20:47.436Z,86.41
2022-10-30T21:23:16.520Z,87.13
2022-10-30T21:25:50.210Z,87.75
2022-10-30T21:28:20.339Z,88.09
2022-10-30T21:30:49.903Z,88.39
2022-10-30T21:33:19.691Z,88.03
2022-10-30T21:35:48.486Z,88.61
2022-10-30T21:38:17.111Z,88.81
2022-10-30T21:40:56.027Z,89.13
2022-10-30T21:43:26.224Z,89.33
2022-10-30T21:45:55.106Z,89.43
2022-10-30T21:48:27.224Z,89.49
2022-10-30T21:50:55.988Z,87.95
2022-10-30T21:53:24.670Z,87.97
2022-10-30T21:55:53.916Z,88.39
2022-10-30T21:58:22.656Z,89.38
2022-10-30T22:00:55.795Z,89.27
2022-10-30T22:03:24.507Z,89.18
2022-10-30T22:05:53.736Z,87.94
2022-10-30T22:08:22.805Z,88.71
2022-10-30T22:10:51.902Z,87.68
2022-10-30T22:13:23.094Z,89.14
2022-10-30T22:15:56.791Z,88.73
2022-10-30T22:18:26.172Z,88.36
2022-10-30T22:21:01.589Z,89.43
2022-10-30T22:23:31.612Z,91.11
2022-10-30T22:26:02.315Z,92.19
2022-10-30T22:28:34.983Z,92.56
2022-10-30T22:31:07.046Z,93.19
2022-10-30T22:33:36.390Z,93.18
2022-10-30T22:36:07.256Z,92.93
2022-10-30T22:38:36.553Z,92.17
2022-10-30T22:41:09.598Z,92.00
2022-10-30T22:43:38.424Z,92.38
2022-10-30T22:46:10.181Z,93.00
2022-10-30T22:48:39.244Z,91.77
2022-10-30T22:51:15.385Z,91.95
2022-10-30T22:53:50.724Z,92.50
2022-10-30T22:56:24.193Z,92.45
2022-10-30T22:58:56.103Z,92.72
2022-10-30T23:01:28.166Z,93.28
2022-10-30T23:03:58.661Z,93.42
2022-10-30T23:06:28.459Z,93.21
2022-10-30T23:08:58.948Z,93.48
2022-10-30T23:11:30.728Z,93.53
2022-10-30T23:13:59.368Z,92.71
2022-10-30T23:16:33.025Z,94.06
2022-10-30T23:19:02.139Z,94.30
2022-10-30T23:21:32.482Z,94.11
2022-10-30T23:24:33.887Z,94.43
2022-10-30T23:27:02.609Z,94.83
2022-10-30T23:29:33.461Z,94.95
2022-10-30T23:32:03.572Z,94.39
2022-10-30T23:34:32.228Z,95.08
2022-10-30T23:37:01.932Z,95.55
2022-10-30T23:39:35.270Z,95.29
2022-10-30T23:42:08.460Z,94.57
2022-10-30T23:44:47.812Z,93.85
2022-10-30T23:47:18.122Z,94.19
2022-10-30T23:49:49.317Z,94.57
2022-10-30T23:52:26.815Z,90.92
2022-10-30T23:54:55.740Z,90.55
2022-10-30T23:57:24.839Z,91.21
2022-10-30T23:59:53.479Z,91.71
